Terminal Aerodrome Forecast
Issued by NWS Portland, ME

Home | Current Version | Previous Version | Text Only | Print | Product List | Glossary On
Versions: 1 2 3 4 5 6 7 8 9 10 11 12 13 14 15 16 17 18 19 20
000
FTUS41 KGYX 030723 AAA
TAFCON
TAF AMD
KCON 030723Z 0307/0406 VRB03KT 6SM BR BKN020
      TEMPO 0307/0311 3/4SM BR BKN002
     FM031200 35004KT 5SM BR BKN025
     FM031300 36004KT P6SM SCT050
     FM031800 16007KT P6SM SCT050=

USA.gov is the U.S. government's official web portal to all federal, state and local government web resources and services.